sensor_id;sensor_type;location;lat;lon;timestamp;P1;durP1;ratioP1;P2;durP2;ratioP2
16117;SDS011;8163;50.118;5.342;2022-12-11T00:01:09;17.57;;;11.23;;
16117;SDS011;8163;50.118;5.342;2022-12-11T00:03:37;19.30;;;11.23;;
16117;SDS011;8163;50.118;5.342;2022-12-11T00:06:06;17.83;;;10.60;;
16117;SDS011;8163;50.118;5.342;2022-12-11T00:08:35;17.63;;;10.77;;
16117;SDS011;8163;50.118;5.342;2022-12-11T00:11:02;21.77;;;10.05;;
16117;SDS011;8163;50.118;5.342;2022-12-11T00:13:29;17.15;;;11.25;;
16117;SDS011;8163;50.118;5.342;2022-12-11T00:15:56;15.90;;;10.40;;
16117;SDS011;8163;50.118;5.342;2022-12-11T00:18:24;19.07;;;10.87;;
16117;SDS011;8163;50.118;5.342;2022-12-11T00:20:51;22.42;;;9.68;;
16117;SDS011;8163;50.118;5.342;2022-12-11T00:23:19;18.83;;;10.70;;
16117;SDS011;8163;50.118;5.342;2022-12-11T00:25:46;28.20;;;10.45;;
16117;SDS011;8163;50.118;5.342;2022-12-11T00:28:14;20.40;;;11.97;;
16117;SDS011;8163;50.118;5.342;2022-12-11T00:30:43;19.88;;;10.82;;
16117;SDS011;8163;50.118;5.342;2022-12-11T00:33:10;22.80;;;10.67;;
16117;SDS011;8163;50.118;5.342;2022-12-11T00:35:38;44.60;;;10.20;;
16117;SDS011;8163;50.118;5.342;2022-12-11T00:38:07;22.33;;;9.70;;
16117;SDS011;8163;50.118;5.342;2022-12-11T00:40:36;37.90;;;11.33;;
16117;SDS011;8163;50.118;5.342;2022-12-11T00:43:03;17.50;;;10.05;;
16117;SDS011;8163;50.118;5.342;2022-12-11T00:45:30;18.50;;;9.83;;
16117;SDS011;8163;50.118;5.342;2022-12-11T00:48:00;17.37;;;10.13;;
16117;SDS011;8163;50.118;5.342;2022-12-11T00:50:27;20.52;;;10.07;;
16117;SDS011;8163;50.118;5.342;2022-12-11T00:52:54;27.33;;;10.47;;
16117;SDS011;8163;50.118;5.342;2022-12-11T00:55:23;25.40;;;10.80;;
16117;SDS011;8163;50.118;5.342;2022-12-11T00:57:54;23.70;;;11.23;;
16117;SDS011;8163;50.118;5.342;2022-12-11T01:00:22;20.03;;;10.83;;
16117;SDS011;8163;50.118;5.342;2022-12-11T01:02:49;16.90;;;11.20;;
16117;SDS011;8163;50.118;5.342;2022-12-11T01:05:16;22.83;;;10.43;;
16117;SDS011;8163;50.118;5.342;2022-12-11T01:07:43;15.87;;;8.93;;
16117;SDS011;8163;50.118;5.342;2022-12-11T01:10:11;24.10;;;10.03;;
16117;SDS011;8163;50.118;5.342;2022-12-11T01:12:51;19.10;;;10.33;;
16117;SDS011;8163;50.118;5.342;2022-12-11T01:15:22;35.70;;;10.37;;
16117;SDS011;8163;50.118;5.342;2022-12-11T01:17:50;26.20;;;8.73;;
16117;SDS011;8163;50.118;5.342;2022-12-11T01:20:18;27.13;;;8.77;;
16117;SDS011;8163;50.118;5.342;2022-12-11T01:22:46;15.10;;;8.53;;
16117;SDS011;8163;50.118;5.342;2022-12-11T01:25:13;13.93;;;8.50;;
16117;SDS011;8163;50.118;5.342;2022-12-11T01:27:40;12.17;;;7.90;;
16117;SDS011;8163;50.118;5.342;2022-12-11T01:30:13;15.00;;;8.27;;
16117;SDS011;8163;50.118;5.342;2022-12-11T01:32:40;13.67;;;8.47;;
16117;SDS011;8163;50.118;5.342;2022-12-11T01:35:07;15.57;;;8.20;;
16117;SDS011;8163;50.118;5.342;2022-12-11T01:37:34;15.10;;;7.00;;
16117;SDS011;8163;50.118;5.342;2022-12-11T01:40:02;12.80;;;7.80;;
16117;SDS011;8163;50.118;5.342;2022-12-11T01:42:31;14.30;;;7.60;;
16117;SDS011;8163;50.118;5.342;2022-12-11T01:45:15;16.00;;;7.67;;
16117;SDS011;8163;50.118;5.342;2022-12-11T01:47:51;10.70;;;6.97;;
16117;SDS011;8163;50.118;5.342;2022-12-11T01:50:22;11.90;;;7.07;;
16117;SDS011;8163;50.118;5.342;2022-12-11T01:52:49;10.83;;;7.20;;
16117;SDS011;8163;50.118;5.342;2022-12-11T01:55:17;10.60;;;7.13;;
16117;SDS011;8163;50.118;5.342;2022-12-11T01:57:46;11.53;;;6.30;;
16117;SDS011;8163;50.118;5.342;2022-12-11T02:00:17;9.63;;;6.50;;
16117;SDS011;8163;50.118;5.342;2022-12-11T02:02:44;10.37;;;6.50;;
16117;SDS011;8163;50.118;5.342;2022-12-11T02:05:11;8.30;;;5.60;;
16117;SDS011;8163;50.118;5.342;2022-12-11T02:07:39;11.55;;;6.63;;
16117;SDS011;8163;50.118;5.342;2022-12-11T02:10:10;11.57;;;7.30;;
16117;SDS011;8163;50.118;5.342;2022-12-11T02:12:39;9.77;;;6.00;;
16117;SDS011;8163;50.118;5.342;2022-12-11T02:15:12;9.15;;;6.25;;
16117;SDS011;8163;50.118;5.342;2022-12-11T02:17:49;10.03;;;6.27;;
16117;SDS011;8163;50.118;5.342;2022-12-11T02:20:21;13.13;;;6.43;;
16117;SDS011;8163;50.118;5.342;2022-12-11T02:23:05;12.27;;;6.33;;
16117;SDS011;8163;50.118;5.342;2022-12-11T02:26:00;7.60;;;5.38;;
16117;SDS011;8163;50.118;5.342;2022-12-11T02:28:39;8.77;;;6.17;;
16117;SDS011;8163;50.118;5.342;2022-12-11T02:31:13;7.73;;;6.00;;
16117;SDS011;8163;50.118;5.342;2022-12-11T02:33:47;8.50;;;5.83;;
16117;SDS011;8163;50.118;5.342;2022-12-11T02:36:19;8.13;;;5.60;;
16117;SDS011;8163;50.118;5.342;2022-12-11T02:38:50;11.57;;;6.20;;
16117;SDS011;8163;50.118;5.342;2022-12-11T02:41:20;9.57;;;5.50;;
16117;SDS011;8163;50.118;5.342;2022-12-11T02:43:49;9.03;;;5.20;;
16117;SDS011;8163;50.118;5.342;2022-12-11T02:46:17;10.97;;;6.20;;
16117;SDS011;8163;50.118;5.342;2022-12-11T02:48:47;9.23;;;5.93;;
16117;SDS011;8163;50.118;5.342;2022-12-11T02:51:17;12.00;;;5.97;;
16117;SDS011;8163;50.118;5.342;2022-12-11T02:53:47;8.53;;;5.60;;
16117;SDS011;8163;50.118;5.342;2022-12-11T02:56:18;9.07;;;6.23;;
16117;SDS011;8163;50.118;5.342;2022-12-11T02:58:53;10.87;;;6.73;;
16117;SDS011;8163;50.118;5.342;2022-12-11T03:01:24;11.23;;;6.10;;
16117;SDS011;8163;50.118;5.342;2022-12-11T03:03:52;13.40;;;6.87;;
16117;SDS011;8163;50.118;5.342;2022-12-11T03:06:20;9.33;;;5.47;;
16117;SDS011;8163;50.118;5.342;2022-12-11T03:08:57;10.50;;;6.90;;
16117;SDS011;8163;50.118;5.342;2022-12-11T03:11:24;10.57;;;5.93;;
16117;SDS011;8163;50.118;5.342;2022-12-11T03:13:52;8.67;;;5.50;;
16117;SDS011;8163;50.118;5.342;2022-12-11T03:16:22;11.10;;;6.37;;
16117;SDS011;8163;50.118;5.342;2022-12-11T03:19:01;8.73;;;5.80;;
16117;SDS011;8163;50.118;5.342;2022-12-11T03:21:37;9.35;;;5.53;;
16117;SDS011;8163;50.118;5.342;2022-12-11T03:24:09;7.80;;;5.60;;
16117;SDS011;8163;50.118;5.342;2022-12-11T03:26:40;10.30;;;5.83;;
16117;SDS011;8163;50.118;5.342;2022-12-11T03:29:14;9.67;;;6.60;;
16117;SDS011;8163;50.118;5.342;2022-12-11T03:31:45;12.70;;;6.30;;
16117;SDS011;8163;50.118;5.342;2022-12-11T03:34:21;12.10;;;6.27;;
16117;SDS011;8163;50.118;5.342;2022-12-11T03:36:51;11.50;;;5.97;;
16117;SDS011;8163;50.118;5.342;2022-12-11T03:39:21;11.13;;;7.13;;
16117;SDS011;8163;50.118;5.342;2022-12-11T03:41:52;10.50;;;6.38;;
16117;SDS011;8163;50.118;5.342;2022-12-11T03:44:22;11.33;;;6.33;;
16117;SDS011;8163;50.118;5.342;2022-12-11T03:46:51;12.60;;;6.67;;
16117;SDS011;8163;50.118;5.342;2022-12-11T03:49:21;13.37;;;8.07;;
16117;SDS011;8163;50.118;5.342;2022-12-11T03:51:52;8.57;;;6.20;;
16117;SDS011;8163;50.118;5.342;2022-12-11T03:54:22;12.93;;;6.77;;
16117;SDS011;8163;50.118;5.342;2022-12-11T03:56:50;15.63;;;7.93;;
16117;SDS011;8163;50.118;5.342;2022-12-11T03:59:21;14.53;;;6.87;;
16117;SDS011;8163;50.118;5.342;2022-12-11T04:01:48;16.33;;;8.37;;
16117;SDS011;8163;50.118;5.342;2022-12-11T04:04:15;14.13;;;6.73;;
16117;SDS011;8163;50.118;5.342;2022-12-11T04:06:42;14.40;;;7.10;;
16117;SDS011;8163;50.118;5.342;2022-12-11T04:09:09;11.03;;;6.23;;
16117;SDS011;8163;50.118;5.342;2022-12-11T04:11:37;14.43;;;6.70;;
16117;SDS011;8163;50.118;5.342;2022-12-11T04:14:04;11.43;;;6.03;;
16117;SDS011;8163;50.118;5.342;2022-12-11T04:16:52;12.13;;;5.97;;
16117;SDS011;8163;50.118;5.342;2022-12-11T04:19:20;11.47;;;6.43;;
16117;SDS011;8163;50.118;5.342;2022-12-11T04:22:05;10.00;;;5.43;;
16117;SDS011;8163;50.118;5.342;2022-12-11T04:24:50;9.33;;;6.37;;
16117;SDS011;8163;50.118;5.342;2022-12-11T04:27:17;13.50;;;6.50;;
16117;SDS011;8163;50.118;5.342;2022-12-11T04:29:58;13.60;;;6.47;;
16117;SDS011;8163;50.118;5.342;2022-12-11T04:32:27;12.00;;;6.87;;
16117;SDS011;8163;50.118;5.342;2022-12-11T04:34:54;7.77;;;5.47;;
16117;SDS011;8163;50.118;5.342;2022-12-11T04:37:20;11.77;;;6.27;;
16117;SDS011;8163;50.118;5.342;2022-12-11T04:39:47;9.33;;;6.33;;
16117;SDS011;8163;50.118;5.342;2022-12-11T04:42:14;10.87;;;6.70;;
16117;SDS011;8163;50.118;5.342;2022-12-11T04:44:41;10.07;;;4.53;;
16117;SDS011;8163;50.118;5.342;2022-12-11T04:47:08;11.07;;;6.07;;
16117;SDS011;8163;50.118;5.342;2022-12-11T04:49:37;9.53;;;5.60;;
16117;SDS011;8163;50.118;5.342;2022-12-11T04:52:04;8.23;;;5.40;;
16117;SDS011;8163;50.118;5.342;2022-12-11T04:54:31;9.03;;;5.90;;
16117;SDS011;8163;50.118;5.342;2022-12-11T04:56:58;8.47;;;5.00;;
16117;SDS011;8163;50.118;5.342;2022-12-11T04:59:25;11.80;;;5.93;;
16117;SDS011;8163;50.118;5.342;2022-12-11T05:01:52;13.17;;;7.47;;
16117;SDS011;8163;50.118;5.342;2022-12-11T05:04:19;11.23;;;7.03;;
16117;SDS011;8163;50.118;5.342;2022-12-11T05:06:48;10.47;;;6.37;;
16117;SDS011;8163;50.118;5.342;2022-12-11T05:09:16;10.83;;;6.60;;
16117;SDS011;8163;50.118;5.342;2022-12-11T05:11:43;11.43;;;6.07;;
16117;SDS011;8163;50.118;5.342;2022-12-11T05:14:10;10.20;;;6.33;;
16117;SDS011;8163;50.118;5.342;2022-12-11T05:16:37;15.77;;;6.33;;
16117;SDS011;8163;50.118;5.342;2022-12-11T05:19:04;11.50;;;6.67;;
16117;SDS011;8163;50.118;5.342;2022-12-11T05:21:31;8.50;;;6.17;;
16117;SDS011;8163;50.118;5.342;2022-12-11T05:23:59;8.73;;;6.03;;
16117;SDS011;8163;50.118;5.342;2022-12-11T05:26:26;9.93;;;6.70;;
16117;SDS011;8163;50.118;5.342;2022-12-11T05:28:54;9.07;;;6.57;;
16117;SDS011;8163;50.118;5.342;2022-12-11T05:31:21;12.50;;;6.63;;
16117;SDS011;8163;50.118;5.342;2022-12-11T05:33:50;8.30;;;6.07;;
16117;SDS011;8163;50.118;5.342;2022-12-11T05:36:18;10.20;;;7.00;;
16117;SDS011;8163;50.118;5.342;2022-12-11T05:38:46;11.77;;;6.70;;
16117;SDS011;8163;50.118;5.342;2022-12-11T05:41:16;12.90;;;7.53;;
16117;SDS011;8163;50.118;5.342;2022-12-11T05:43:45;10.33;;;6.90;;
16117;SDS011;8163;50.118;5.342;2022-12-11T05:46:13;9.90;;;6.73;;
16117;SDS011;8163;50.118;5.342;2022-12-11T05:48:42;9.47;;;6.33;;
16117;SDS011;8163;50.118;5.342;2022-12-11T05:51:10;12.83;;;7.20;;
16117;SDS011;8163;50.118;5.342;2022-12-11T05:53:41;12.17;;;6.97;;
16117;SDS011;8163;50.118;5.342;2022-12-11T05:56:10;12.07;;;7.40;;
16117;SDS011;8163;50.118;5.342;2022-12-11T05:58:40;9.17;;;6.33;;
16117;SDS011;8163;50.118;5.342;2022-12-11T06:01:08;11.43;;;7.37;;
16117;SDS011;8163;50.118;5.342;2022-12-11T06:03:37;14.80;;;7.97;;
16117;SDS011;8163;50.118;5.342;2022-12-11T06:06:04;12.03;;;7.33;;
16117;SDS011;8163;50.118;5.342;2022-12-11T06:08:32;9.13;;;6.87;;
16117;SDS011;8163;50.118;5.342;2022-12-11T06:11:00;11.40;;;6.80;;
16117;SDS011;8163;50.118;5.342;2022-12-11T06:13:29;12.60;;;8.00;;
16117;SDS011;8163;50.118;5.342;2022-12-11T06:16:00;15.23;;;8.10;;
16117;SDS011;8163;50.118;5.342;2022-12-11T06:18:27;11.40;;;6.77;;
16117;SDS011;8163;50.118;5.342;2022-12-11T06:20:54;12.20;;;7.63;;
16117;SDS011;8163;50.118;5.342;2022-12-11T06:23:22;14.27;;;7.07;;
16117;SDS011;8163;50.118;5.342;2022-12-11T06:25:49;10.93;;;6.17;;
16117;SDS011;8163;50.118;5.342;2022-12-11T06:28:16;12.50;;;7.50;;
16117;SDS011;8163;50.118;5.342;2022-12-11T06:30:43;13.30;;;7.60;;
16117;SDS011;8163;50.118;5.342;2022-12-11T06:33:12;9.10;;;6.60;;
16117;SDS011;8163;50.118;5.342;2022-12-11T06:35:39;10.10;;;6.50;;
16117;SDS011;8163;50.118;5.342;2022-12-11T06:38:06;11.17;;;6.63;;
16117;SDS011;8163;50.118;5.342;2022-12-11T06:40:33;13.13;;;7.47;;
16117;SDS011;8163;50.118;5.342;2022-12-11T06:43:00;10.63;;;6.60;;
16117;SDS011;8163;50.118;5.342;2022-12-11T06:45:27;11.33;;;6.93;;
16117;SDS011;8163;50.118;5.342;2022-12-11T06:47:54;12.70;;;7.40;;
16117;SDS011;8163;50.118;5.342;2022-12-11T06:50:23;8.47;;;5.57;;
16117;SDS011;8163;50.118;5.342;2022-12-11T06:52:50;14.43;;;8.20;;
16117;SDS011;8163;50.118;5.342;2022-12-11T06:55:17;14.40;;;7.67;;
16117;SDS011;8163;50.118;5.342;2022-12-11T06:57:44;11.03;;;8.20;;
16117;SDS011;8163;50.118;5.342;2022-12-11T07:00:11;10.17;;;7.13;;
16117;SDS011;8163;50.118;5.342;2022-12-11T07:02:39;10.73;;;7.90;;
16117;SDS011;8163;50.118;5.342;2022-12-11T07:05:06;9.53;;;7.23;;
16117;SDS011;8163;50.118;5.342;2022-12-11T07:07:35;13.63;;;7.83;;
16117;SDS011;8163;50.118;5.342;2022-12-11T07:10:05;13.27;;;7.50;;
16117;SDS011;8163;50.118;5.342;2022-12-11T07:12:37;11.80;;;8.83;;
16117;SDS011;8163;50.118;5.342;2022-12-11T07:15:04;12.77;;;7.50;;
16117;SDS011;8163;50.118;5.342;2022-12-11T07:17:35;13.60;;;8.10;;
16117;SDS011;8163;50.118;5.342;2022-12-11T07:20:02;12.67;;;8.47;;
16117;SDS011;8163;50.118;5.342;2022-12-11T07:22:31;14.27;;;7.87;;
16117;SDS011;8163;50.118;5.342;2022-12-11T07:24:59;12.63;;;7.97;;
16117;SDS011;8163;50.118;5.342;2022-12-11T07:27:26;11.27;;;7.87;;
16117;SDS011;8163;50.118;5.342;2022-12-11T07:29:54;18.23;;;9.30;;
16117;SDS011;8163;50.118;5.342;2022-12-11T07:32:21;17.17;;;8.13;;
16117;SDS011;8163;50.118;5.342;2022-12-11T07:34:50;13.50;;;6.87;;
16117;SDS011;8163;50.118;5.342;2022-12-11T07:37:17;12.63;;;7.57;;
16117;SDS011;8163;50.118;5.342;2022-12-11T07:39:44;15.13;;;6.90;;
16117;SDS011;8163;50.118;5.342;2022-12-11T07:42:14;12.40;;;8.00;;
16117;SDS011;8163;50.118;5.342;2022-12-11T07:44:41;17.07;;;8.37;;
16117;SDS011;8163;50.118;5.342;2022-12-11T07:47:08;9.77;;;7.30;;
16117;SDS011;8163;50.118;5.342;2022-12-11T07:49:35;13.60;;;6.93;;
16117;SDS011;8163;50.118;5.342;2022-12-11T07:52:02;14.63;;;7.13;;
16117;SDS011;8163;50.118;5.342;2022-12-11T07:54:30;9.27;;;6.37;;
16117;SDS011;8163;50.118;5.342;2022-12-11T07:56:57;12.37;;;7.80;;
16117;SDS011;8163;50.118;5.342;2022-12-11T07:59:25;10.87;;;6.97;;
16117;SDS011;8163;50.118;5.342;2022-12-11T08:01:53;12.07;;;6.63;;
16117;SDS011;8163;50.118;5.342;2022-12-11T08:04:19;11.30;;;6.47;;
16117;SDS011;8163;50.118;5.342;2022-12-11T08:06:46;10.03;;;6.63;;
16117;SDS011;8163;50.118;5.342;2022-12-11T08:09:13;10.10;;;6.23;;
16117;SDS011;8163;50.118;5.342;2022-12-11T08:11:40;10.43;;;6.80;;
16117;SDS011;8163;50.118;5.342;2022-12-11T08:14:08;10.90;;;6.40;;
16117;SDS011;8163;50.118;5.342;2022-12-11T08:16:37;11.82;;;6.30;;
16117;SDS011;8163;50.118;5.342;2022-12-11T08:19:07;10.73;;;6.53;;
16117;SDS011;8163;50.118;5.342;2022-12-11T08:21:34;9.23;;;5.60;;
16117;SDS011;8163;50.118;5.342;2022-12-11T08:24:01;9.47;;;5.83;;
16117;SDS011;8163;50.118;5.342;2022-12-11T08:26:28;8.20;;;5.43;;
16117;SDS011;8163;50.118;5.342;2022-12-11T08:28:57;9.27;;;5.60;;
16117;SDS011;8163;50.118;5.342;2022-12-11T08:31:25;12.07;;;6.63;;
16117;SDS011;8163;50.118;5.342;2022-12-11T08:33:55;8.30;;;5.73;;
16117;SDS011;8163;50.118;5.342;2022-12-11T08:36:22;10.97;;;5.93;;
16117;SDS011;8163;50.118;5.342;2022-12-11T08:38:51;11.90;;;9.63;;
16117;SDS011;8163;50.118;5.342;2022-12-11T08:41:20;9.63;;;7.03;;
16117;SDS011;8163;50.118;5.342;2022-12-11T08:43:49;10.43;;;5.97;;
16117;SDS011;8163;50.118;5.342;2022-12-11T08:46:19;9.00;;;5.68;;
16117;SDS011;8163;50.118;5.342;2022-12-11T08:48:48;9.27;;;5.90;;
16117;SDS011;8163;50.118;5.342;2022-12-11T08:51:18;8.23;;;6.22;;
16117;SDS011;8163;50.118;5.342;2022-12-11T08:53:47;8.43;;;6.07;;
16117;SDS011;8163;50.118;5.342;2022-12-11T08:56:15;10.77;;;6.07;;
16117;SDS011;8163;50.118;5.342;2022-12-11T08:58:44;9.40;;;6.10;;
16117;SDS011;8163;50.118;5.342;2022-12-11T09:01:12;11.88;;;6.32;;
16117;SDS011;8163;50.118;5.342;2022-12-11T09:03:41;9.70;;;6.00;;
16117;SDS011;8163;50.118;5.342;2022-12-11T09:06:09;9.35;;;5.53;;
16117;SDS011;8163;50.118;5.342;2022-12-11T09:08:38;10.47;;;6.07;;
16117;SDS011;8163;50.118;5.342;2022-12-11T09:11:07;11.70;;;5.88;;
16117;SDS011;8163;50.118;5.342;2022-12-11T09:13:36;12.48;;;7.78;;
16117;SDS011;8163;50.118;5.342;2022-12-11T09:16:04;13.40;;;6.78;;
16117;SDS011;8163;50.118;5.342;2022-12-11T09:18:31;12.07;;;7.63;;
16117;SDS011;8163;50.118;5.342;2022-12-11T09:20:59;10.27;;;6.20;;
16117;SDS011;8163;50.118;5.342;2022-12-11T09:23:27;15.57;;;6.70;;
16117;SDS011;8163;50.118;5.342;2022-12-11T09:25:56;11.88;;;6.50;;
16117;SDS011;8163;50.118;5.342;2022-12-11T09:28:23;12.32;;;7.10;;
16117;SDS011;8163;50.118;5.342;2022-12-11T09:30:51;12.70;;;6.57;;
16117;SDS011;8163;50.118;5.342;2022-12-11T09:33:18;11.60;;;6.68;;
16117;SDS011;8163;50.118;5.342;2022-12-11T09:35:45;11.50;;;7.22;;
16117;SDS011;8163;50.118;5.342;2022-12-11T09:38:12;11.25;;;6.50;;
16117;SDS011;8163;50.118;5.342;2022-12-11T09:40:39;11.38;;;7.05;;
16117;SDS011;8163;50.118;5.342;2022-12-11T09:43:11;12.18;;;7.50;;
16117;SDS011;8163;50.118;5.342;2022-12-11T09:45:45;13.15;;;7.70;;
16117;SDS011;8163;50.118;5.342;2022-12-11T09:48:12;11.73;;;6.65;;
16117;SDS011;8163;50.118;5.342;2022-12-11T09:50:46;13.65;;;7.72;;
16117;SDS011;8163;50.118;5.342;2022-12-11T09:53:17;12.88;;;7.18;;
16117;SDS011;8163;50.118;5.342;2022-12-11T09:55:48;11.18;;;7.07;;
16117;SDS011;8163;50.118;5.342;2022-12-11T09:58:23;10.48;;;7.50;;
16117;SDS011;8163;50.118;5.342;2022-12-11T10:00:56;12.55;;;6.93;;
16117;SDS011;8163;50.118;5.342;2022-12-11T10:03:34;13.70;;;7.97;;
16117;SDS011;8163;50.118;5.342;2022-12-11T10:06:17;11.70;;;7.72;;
16117;SDS011;8163;50.118;5.342;2022-12-11T10:08:52;9.50;;;7.20;;
16117;SDS011;8163;50.118;5.342;2022-12-11T10:11:30;12.40;;;8.10;;
16117;SDS011;8163;50.118;5.342;2022-12-11T10:14:15;10.80;;;8.00;;
16117;SDS011;8163;50.118;5.342;2022-12-11T10:16:48;12.27;;;8.10;;
16117;SDS011;8163;50.118;5.342;2022-12-11T10:19:18;12.00;;;7.85;;
16117;SDS011;8163;50.118;5.342;2022-12-11T10:21:49;11.32;;;8.05;;
16117;SDS011;8163;50.118;5.342;2022-12-11T10:24:19;9.55;;;7.47;;
16117;SDS011;8163;50.118;5.342;2022-12-11T10:26:51;10.48;;;7.47;;
16117;SDS011;8163;50.118;5.342;2022-12-11T10:29:23;10.68;;;8.00;;
16117;SDS011;8163;50.118;5.342;2022-12-11T10:31:52;12.05;;;8.88;;
16117;SDS011;8163;50.118;5.342;2022-12-11T10:34:24;9.95;;;8.20;;
16117;SDS011;8163;50.118;5.342;2022-12-11T10:36:56;10.68;;;9.13;;
16117;SDS011;8163;50.118;5.342;2022-12-11T10:39:23;9.07;;;8.18;;
16117;SDS011;8163;50.118;5.342;2022-12-11T10:41:50;8.52;;;7.63;;
16117;SDS011;8163;50.118;5.342;2022-12-11T10:44:19;13.05;;;8.65;;
16117;SDS011;8163;50.118;5.342;2022-12-11T10:47:00;9.18;;;8.23;;
16117;SDS011;8163;50.118;5.342;2022-12-11T10:49:29;9.55;;;8.13;;
16117;SDS011;8163;50.118;5.342;2022-12-11T10:51:57;9.60;;;8.07;;
16117;SDS011;8163;50.118;5.342;2022-12-11T10:54:30;10.60;;;7.85;;
16117;SDS011;8163;50.118;5.342;2022-12-11T10:57:00;9.88;;;7.57;;
16117;SDS011;8163;50.118;5.342;2022-12-11T10:59:31;8.38;;;7.55;;
16117;SDS011;8163;50.118;5.342;2022-12-11T11:02:04;7.82;;;7.03;;
16117;SDS011;8163;50.118;5.342;2022-12-11T11:04:41;7.32;;;6.63;;
16117;SDS011;8163;50.118;5.342;2022-12-11T11:07:10;9.27;;;7.30;;
16117;SDS011;8163;50.118;5.342;2022-12-11T11:09:41;7.63;;;6.80;;
16117;SDS011;8163;50.118;5.342;2022-12-11T11:12:18;9.10;;;6.50;;
16117;SDS011;8163;50.118;5.342;2022-12-11T11:14:57;6.88;;;6.18;;
16117;SDS011;8163;50.118;5.342;2022-12-11T11:17:27;8.63;;;6.28;;
16117;SDS011;8163;50.118;5.342;2022-12-11T11:19:56;7.53;;;6.70;;
16117;SDS011;8163;50.118;5.342;2022-12-11T11:22:26;8.35;;;6.88;;
16117;SDS011;8163;50.118;5.342;2022-12-11T11:24:54;9.10;;;8.07;;
16117;SDS011;8163;50.118;5.342;2022-12-11T11:27:25;8.23;;;6.47;;
16117;SDS011;8163;50.118;5.342;2022-12-11T11:29:57;8.05;;;6.70;;
16117;SDS011;8163;50.118;5.342;2022-12-11T11:32:29;9.02;;;7.00;;
16117;SDS011;8163;50.118;5.342;2022-12-11T11:35:13;7.60;;;6.88;;
16117;SDS011;8163;50.118;5.342;2022-12-11T11:37:46;8.40;;;7.60;;
16117;SDS011;8163;50.118;5.342;2022-12-11T11:40:22;8.18;;;6.70;;
16117;SDS011;8163;50.118;5.342;2022-12-11T11:42:55;9.50;;;7.32;;
16117;SDS011;8163;50.118;5.342;2022-12-11T11:45:30;10.48;;;8.02;;
16117;SDS011;8163;50.118;5.342;2022-12-11T11:48:06;8.15;;;7.30;;
16117;SDS011;8163;50.118;5.342;2022-12-11T11:50:43;10.93;;;7.93;;
16117;SDS011;8163;50.118;5.342;2022-12-11T11:53:16;9.73;;;8.20;;
16117;SDS011;8163;50.118;5.342;2022-12-11T11:55:51;11.20;;;8.90;;
16117;SDS011;8163;50.118;5.342;2022-12-11T11:58:29;9.27;;;8.25;;
16117;SDS011;8163;50.118;5.342;2022-12-11T12:01:02;10.07;;;8.88;;
16117;SDS011;8163;50.118;5.342;2022-12-11T12:03:30;10.13;;;8.85;;
16117;SDS011;8163;50.118;5.342;2022-12-11T12:06:00;10.07;;;9.02;;
16117;SDS011;8163;50.118;5.342;2022-12-11T12:08:39;9.50;;;8.40;;
16117;SDS011;8163;50.118;5.342;2022-12-11T12:11:12;9.25;;;8.27;;
16117;SDS011;8163;50.118;5.342;2022-12-11T12:13:48;10.05;;;9.13;;
16117;SDS011;8163;50.118;5.342;2022-12-11T12:16:24;10.25;;;9.25;;
16117;SDS011;8163;50.118;5.342;2022-12-11T12:19:07;10.27;;;9.02;;
16117;SDS011;8163;50.118;5.342;2022-12-11T12:21:42;10.63;;;9.57;;
16117;SDS011;8163;50.118;5.342;2022-12-11T12:24:17;10.27;;;9.13;;
16117;SDS011;8163;50.118;5.342;2022-12-11T12:26:55;10.63;;;9.35;;
16117;SDS011;8163;50.118;5.342;2022-12-11T12:29:28;10.75;;;9.27;;
16117;SDS011;8163;50.118;5.342;2022-12-11T12:32:08;12.27;;;9.30;;
16117;SDS011;8163;50.118;5.342;2022-12-11T12:34:54;14.98;;;10.55;;
16117;SDS011;8163;50.118;5.342;2022-12-11T12:37:35;15.48;;;9.68;;
16117;SDS011;8163;50.118;5.342;2022-12-11T12:40:14;12.82;;;8.82;;
16117;SDS011;8163;50.118;5.342;2022-12-11T12:42:48;11.48;;;8.07;;
16117;SDS011;8163;50.118;5.342;2022-12-11T12:45:24;14.90;;;9.27;;
16117;SDS011;8163;50.118;5.342;2022-12-11T12:47:53;11.50;;;8.05;;
16117;SDS011;8163;50.118;5.342;2022-12-11T12:50:23;14.48;;;8.93;;
16117;SDS011;8163;50.118;5.342;2022-12-11T12:52:52;13.93;;;9.48;;
16117;SDS011;8163;50.118;5.342;2022-12-11T12:55:21;13.00;;;8.10;;
16117;SDS011;8163;50.118;5.342;2022-12-11T12:57:54;13.50;;;9.25;;
16117;SDS011;8163;50.118;5.342;2022-12-11T13:00:27;12.55;;;8.60;;
16117;SDS011;8163;50.118;5.342;2022-12-11T13:03:00;14.80;;;8.82;;
16117;SDS011;8163;50.118;5.342;2022-12-11T13:05:40;12.80;;;8.68;;
16117;SDS011;8163;50.118;5.342;2022-12-11T13:08:10;18.83;;;9.27;;
16117;SDS011;8163;50.118;5.342;2022-12-11T13:10:38;15.90;;;9.35;;
16117;SDS011;8163;50.118;5.342;2022-12-11T13:15:51;13.55;;;8.90;;
16117;SDS011;8163;50.118;5.342;2022-12-11T13:18:32;13.15;;;7.85;;
16117;SDS011;8163;50.118;5.342;2022-12-11T13:21:02;15.23;;;11.65;;
16117;SDS011;8163;50.118;5.342;2022-12-11T13:23:50;12.50;;;8.93;;
16117;SDS011;8163;50.118;5.342;2022-12-11T13:26:26;14.98;;;9.50;;
16117;SDS011;8163;50.118;5.342;2022-12-11T13:28:54;16.50;;;8.95;;
16117;SDS011;8163;50.118;5.342;2022-12-11T13:31:26;13.85;;;9.77;;
16117;SDS011;8163;50.118;5.342;2022-12-11T13:34:01;17.00;;;10.18;;
16117;SDS011;8163;50.118;5.342;2022-12-11T13:36:35;13.88;;;10.38;;
16117;SDS011;8163;50.118;5.342;2022-12-11T13:39:05;14.90;;;10.98;;
16117;SDS011;8163;50.118;5.342;2022-12-11T13:41:47;13.70;;;10.27;;
16117;SDS011;8163;50.118;5.342;2022-12-11T13:44:19;17.27;;;10.77;;
16117;SDS011;8163;50.118;5.342;2022-12-11T13:46:49;15.80;;;9.73;;
16117;SDS011;8163;50.118;5.342;2022-12-11T13:49:23;19.75;;;10.80;;
16117;SDS011;8163;50.118;5.342;2022-12-11T13:51:56;18.00;;;10.25;;
16117;SDS011;8163;50.118;5.342;2022-12-11T13:54:25;15.57;;;10.10;;
16117;SDS011;8163;50.118;5.342;2022-12-11T13:56:57;15.35;;;10.65;;
16117;SDS011;8163;50.118;5.342;2022-12-11T14:35:59;13.95;;;8.48;;
16117;SDS011;8163;50.118;5.342;2022-12-11T14:38:29;14.00;;;8.57;;
16117;SDS011;8163;50.118;5.342;2022-12-11T14:41:02;12.18;;;7.97;;
16117;SDS011;8163;50.118;5.342;2022-12-11T14:43:34;13.02;;;7.40;;
16117;SDS011;8163;50.118;5.342;2022-12-11T14:46:08;13.48;;;7.85;;
16117;SDS011;8163;50.118;5.342;2022-12-11T14:48:42;13.88;;;8.88;;
16117;SDS011;8163;50.118;5.342;2022-12-11T14:51:15;15.77;;;8.68;;
16117;SDS011;8163;50.118;5.342;2022-12-11T14:53:45;16.23;;;9.40;;
16117;SDS011;8163;50.118;5.342;2022-12-11T14:56:15;12.77;;;8.43;;
16117;SDS011;8163;50.118;5.342;2022-12-11T14:58:45;15.05;;;8.98;;
16117;SDS011;8163;50.118;5.342;2022-12-11T15:01:22;14.50;;;8.70;;
16117;SDS011;8163;50.118;5.342;2022-12-11T15:04:00;12.98;;;8.43;;
16117;SDS011;8163;50.118;5.342;2022-12-11T15:06:30;16.48;;;10.18;;
16117;SDS011;8163;50.118;5.342;2022-12-11T15:09:08;18.17;;;9.80;;
16117;SDS011;8163;50.118;5.342;2022-12-11T15:11:41;13.48;;;8.60;;
16117;SDS011;8163;50.118;5.342;2022-12-11T15:14:09;17.83;;;9.10;;
16117;SDS011;8163;50.118;5.342;2022-12-11T15:16:39;14.68;;;8.55;;
16117;SDS011;8163;50.118;5.342;2022-12-11T15:19:13;14.50;;;8.80;;
16117;SDS011;8163;50.118;5.342;2022-12-11T15:21:46;16.40;;;9.68;;
16117;SDS011;8163;50.118;5.342;2022-12-11T15:24:21;13.43;;;8.90;;
16117;SDS011;8163;50.118;5.342;2022-12-11T15:26:56;14.65;;;8.85;;
16117;SDS011;8163;50.118;5.342;2022-12-11T15:29:25;17.77;;;9.68;;
16117;SDS011;8163;50.118;5.342;2022-12-11T15:32:02;19.25;;;9.50;;
16117;SDS011;8163;50.118;5.342;2022-12-11T15:34:43;14.68;;;8.98;;
16117;SDS011;8163;50.118;5.342;2022-12-11T15:37:23;15.43;;;8.65;;
16117;SDS011;8163;50.118;5.342;2022-12-11T15:39:52;18.38;;;9.13;;
16117;SDS011;8163;50.118;5.342;2022-12-11T15:42:23;16.63;;;9.25;;
16117;SDS011;8163;50.118;5.342;2022-12-11T15:44:54;16.13;;;8.00;;
16117;SDS011;8163;50.118;5.342;2022-12-11T15:47:22;22.42;;;10.05;;
16117;SDS011;8163;50.118;5.342;2022-12-11T15:49:52;19.58;;;9.23;;